Terminal Aerodrome Forecast
Issued by NWS

Home | Current Version | Previous Version | Text Only | Print | Product List | Glossary On
Versions: 1 2 3 4 5 6 7 8 9 10 11 12 13 14 15 16 17 18 19 20 21 22 23 24 25 26 27 28 29 30 31 32 33
954
FTUS43 KDLH 082349
TAFHIB
TAF
KHIB 082349Z 0900/0924 32014G20KT 4SM -SN SCT025 OVC040
      TEMPO 0900/0904 1SM -SN OVC025
     FM090400 33014G20KT 5SM -SN BKN025 OVC050
     FM091100 34012G20KT P6SM SCT030 BKN050
     FM091500 34015G24KT P6SM SCT080=

USA.gov is the U.S. government's official web portal to all federal, state and local government web resources and services.